Time;durP1;ratioP1;P1;durP2;ratioP2;P2;SDS_P1;SDS_P2;PMS_P1;PMS_P2;Temp;Humidity;BMP_temperature;BMP_pressure;BME280_temperature;BME280_humidity;BME280_pressure;Samples;Min_cycle;Max_cycle;Signal;HPM_P1;HPM_P2
2022/06/05 00:01:50;;;;;;;8.65;4.90;;;19.50;57.60;;;;;;5051352;28;20040;-65
2022/06/05 00:04:38;;;;;;;10.27;4.80;;;19.50;57.40;;;;;;5060533;28;20033;-64
2022/06/05 00:07:35;;;;;;;7.82;4.07;;;19.50;57.50;;;;;;5039716;28;20068;-65
2022/06/05 00:10:06;;;;;;;10.77;4.88;;;19.50;57.60;;;;;;5052367;28;20126;-64
2022/06/05 00:12:55;;;;;;;8.98;4.90;;;19.40;57.50;;;;;;5051090;28;20362;-64
2022/06/05 00:15:21;;;;;;;7.82;4.95;;;19.40;57.70;;;;;;5053006;28;20124;-65
2022/06/05 00:17:47;;;;;;;7.80;4.50;;;19.40;57.60;;;;;;5038831;28;20105;-64
2022/06/05 00:20:13;;;;;;;8.48;4.30;;;19.40;57.60;;;;;;5050729;28;20044;-65
2022/06/05 00:22:39;;;;;;;8.52;4.38;;;19.40;57.60;;;;;;5051247;28;20124;-65
2022/06/05 00:25:07;;;;;;;8.20;4.60;;;19.40;57.60;;;;;;5043304;28;20037;-64
2022/06/05 00:27:53;;;;;;;8.80;4.57;;;19.40;57.70;;;;;;5047388;28;20037;-65
2022/06/05 00:30:26;;;;;;;8.27;4.80;;;19.40;57.80;;;;;;5052900;28;20021;-65
2022/06/05 00:33:01;;;;;;;8.98;5.22;;;19.30;57.90;;;;;;5039593;28;20025;-65
2022/06/05 00:35:33;;;;;;;9.73;4.70;;;19.30;58.00;;;;;;5039807;28;20041;-65
2022/06/05 00:38:21;;;;;;;8.00;4.55;;;19.30;58.00;;;;;;5041270;28;20036;-65
2022/06/05 00:41:40;;;;;;;8.18;4.63;;;19.30;58.10;;;;;;5052136;28;20031;-64
2022/06/05 00:44:09;;;;;;;8.13;4.65;;;19.20;58.10;;;;;;5033304;28;20570;-64
2022/06/05 00:46:37;;;;;;;9.68;4.53;;;19.20;58.20;;;;;;5050091;28;20390;-64
2022/06/05 00:49:06;;;;;;;8.57;4.38;;;19.20;58.20;;;;;;5045531;28;20500;-65
2022/06/05 00:51:31;;;;;;;10.77;4.70;;;19.20;58.30;;;;;;5048674;28;20393;-65
2022/06/05 00:53:57;;;;;;;8.70;4.78;;;19.10;58.30;;;;;;5052794;28;20044;-65
2022/06/05 00:56:23;;;;;;;11.82;5.05;;;19.10;58.30;;;;;;5055724;28;20146;-65
2022/06/05 00:58:48;;;;;;;8.75;4.78;;;19.10;58.30;;;;;;5036030;28;20032;-65
2022/06/05 01:01:14;;;;;;;8.35;4.53;;;19.10;58.40;;;;;;5053442;28;20037;-65
2022/06/05 01:03:40;;;;;;;9.45;5.13;;;19.10;58.50;;;;;;5027392;28;20037;-65
2022/06/05 01:06:05;;;;;;;8.68;4.72;;;19.10;58.50;;;;;;5053880;28;20033;-65
2022/06/05 01:08:31;;;;;;;9.45;4.45;;;19.10;58.50;;;;;;5053810;28;20037;-65
2022/06/05 01:11:23;;;;;;;8.93;4.90;;;19.10;58.50;;;;;;5053447;28;20057;-65
2022/06/05 01:14:07;;;;;;;10.18;4.60;;;19.10;58.60;;;;;;5041277;28;20056;-65
2022/06/05 01:16:42;;;;;;;8.60;4.97;;;19.00;58.60;;;;;;5043244;28;20386;-65
2022/06/05 01:19:22;;;;;;;8.43;4.68;;;19.00;58.70;;;;;;5046211;28;20115;-65
2022/06/05 01:22:16;;;;;;;7.30;4.50;;;19.00;58.80;;;;;;5054245;28;20434;-65
2022/06/05 01:24:57;;;;;;;7.82;4.43;;;19.00;58.80;;;;;;5045700;28;20025;-65
2022/06/05 01:27:27;;;;;;;9.43;5.18;;;19.00;58.90;;;;;;5054645;28;20044;-65
2022/06/05 01:30:18;;;;;;;7.88;4.57;;;19.00;58.90;;;;;;5047792;28;20028;-65
2022/06/05 01:32:52;;;;;;;8.45;5.05;;;18.90;58.90;;;;;;5050315;28;20040;-65
2022/06/05 01:35:32;;;;;;;8.48;5.15;;;18.90;59.00;;;;;;5044584;28;20112;-65
2022/06/05 01:38:06;;;;;;;9.20;4.90;;;18.90;59.20;;;;;;5047091;28;20060;-65
2022/06/05 01:40:40;;;;;;;9.35;5.68;;;18.90;59.30;;;;;;5050614;28;20039;-65
2022/06/05 01:43:12;;;;;;;8.73;5.78;;;18.80;59.40;;;;;;5049515;28;20029;-65
2022/06/05 01:45:51;;;;;;;9.82;4.72;;;18.80;59.50;;;;;;5065264;28;20025;-65
2022/06/05 01:48:23;;;;;;;9.18;4.63;;;18.80;59.60;;;;;;5042051;28;20092;-65
2022/06/05 01:50:53;;;;;;;10.02;5.50;;;18.70;59.70;;;;;;5049376;28;20033;-65
2022/06/05 01:53:31;;;;;;;11.55;5.50;;;18.70;59.80;;;;;;5051676;28;20120;-65
2022/06/05 01:56:10;;;;;;;9.90;5.25;;;18.70;60.00;;;;;;5043581;28;20346;-65
2022/06/05 01:58:49;;;;;;;9.60;5.50;;;18.70;60.10;;;;;;5054013;28;20082;-65
2022/06/05 02:01:25;;;;;;;9.73;5.72;;;18.60;60.10;;;;;;5053752;28;20017;-65
2022/06/05 02:03:58;;;;;;;9.52;6.05;;;18.60;60.20;;;;;;5047462;28;20095;-65
2022/06/05 02:06:33;;;;;;;8.85;5.40;;;18.60;60.40;;;;;;5047086;28;20021;-65
2022/06/05 02:09:05;;;;;;;10.90;5.38;;;18.60;60.50;;;;;;5053761;28;20033;-65
2022/06/05 02:11:32;;;;;;;9.82;4.85;;;18.50;60.50;;;;;;5054373;28;20041;-65
2022/06/05 02:14:05;;;;;;;7.90;5.05;;;18.50;60.60;;;;;;5049835;28;20025;-65
2022/06/05 02:16:32;;;;;;;9.35;5.45;;;18.50;60.70;;;;;;5051165;28;20029;-65
2022/06/05 02:19:01;;;;;;;9.73;5.72;;;18.50;60.90;;;;;;5046290;28;20041;-65
2022/06/05 02:21:27;;;;;;;8.98;5.35;;;18.50;61.00;;;;;;5053246;28;20029;-65
2022/06/05 02:23:53;;;;;;;7.65;5.60;;;18.40;61.00;;;;;;5050205;28;20354;-65
2022/06/05 02:26:19;;;;;;;10.27;5.93;;;18.40;61.10;;;;;;5054618;28;20029;-65
2022/06/05 02:28:45;;;;;;;8.70;5.43;;;18.40;61.20;;;;;;5053324;28;20025;-65
2022/06/05 02:31:28;;;;;;;9.40;5.75;;;18.40;61.30;;;;;;5041328;28;20029;-64
2022/06/05 02:34:16;;;;;;;9.95;6.30;;;18.40;61.40;;;;;;5047312;28;20362;-65
2022/06/05 02:36:58;;;;;;;10.57;5.95;;;18.40;61.50;;;;;;5041420;28;20393;-65
2022/06/05 02:39:45;;;;;;;;;;;18.30;61.70;;;;;;5052771;28;20029;-65
2022/06/05 02:42:32;;;;;;;8.95;5.32;;;18.30;61.50;;;;;;5052879;28;20419;-65
2022/06/05 02:45:16;;;;;;;9.60;5.32;;;18.20;61.70;;;;;;5049888;28;20040;-65
2022/06/05 02:47:44;;;;;;;11.02;5.75;;;18.20;61.90;;;;;;5054134;28;20140;-65
2022/06/05 02:50:15;;;;;;;9.38;6.07;;;18.10;61.90;;;;;;5045281;28;20438;-65
2022/06/05 02:52:41;;;;;;;9.32;6.07;;;18.10;62.10;;;;;;5049519;28;20025;-65
2022/06/05 02:55:10;;;;;;;9.85;5.82;;;18.10;62.10;;;;;;5044090;28;20031;-64
2022/06/05 02:57:36;;;;;;;9.38;6.25;;;18.10;62.20;;;;;;5043194;28;20025;-64
2022/06/05 03:00:06;;;;;;;8.93;5.82;;;18.10;62.40;;;;;;5044223;28;20402;-65
2022/06/05 03:05:16;;;;;;;10.32;6.32;;;18.00;62.50;;;;;;5041463;28;20116;-64
2022/06/05 03:07:42;;;;;;;10.10;6.05;;;18.00;62.60;;;;;;5035838;28;20111;-65
2022/06/05 03:10:09;;;;;;;9.70;6.35;;;18.00;62.60;;;;;;5044858;28;20037;-65
2022/06/05 03:12:35;;;;;;;10.30;6.30;;;18.00;62.70;;;;;;5043813;28;20025;-64
2022/06/05 03:15:01;;;;;;;10.90;6.70;;;18.00;62.80;;;;;;5045652;28;20021;-65
2022/06/05 03:17:30;;;;;;;10.60;6.53;;;18.00;62.80;;;;;;5046607;28;20083;-65
2022/06/05 03:19:57;;;;;;;11.93;6.47;;;18.00;62.90;;;;;;5053357;28;20021;-65
2022/06/05 03:22:24;;;;;;;10.02;6.25;;;18.00;63.00;;;;;;5053233;28;20412;-65
2022/06/05 03:24:50;;;;;;;10.98;6.88;;;18.00;63.00;;;;;;5051754;28;20033;-65
2022/06/05 03:27:16;;;;;;;9.73;6.55;;;17.90;63.10;;;;;;5038010;28;20113;-65
2022/06/05 03:29:41;;;;;;;10.65;7.65;;;17.90;63.10;;;;;;5050686;28;20025;-66
2022/06/05 03:32:07;;;;;;;11.05;6.40;;;17.90;63.20;;;;;;5046835;28;20048;-65
2022/06/05 03:34:33;;;;;;;10.52;6.38;;;17.90;63.30;;;;;;5052150;28;20032;-65
2022/06/05 03:36:59;;;;;;;11.25;6.65;;;17.90;63.30;;;;;;5042182;28;20036;-65
2022/06/05 03:39:24;;;;;;;11.50;7.00;;;17.90;63.30;;;;;;5048529;28;20033;-65
2022/06/05 03:41:50;;;;;;;12.50;6.68;;;17.80;63.40;;;;;;5044801;28;20024;-65
2022/06/05 03:44:16;;;;;;;13.10;7.28;;;17.80;63.40;;;;;;5053680;28;20399;-65
2022/06/05 03:46:41;;;;;;;10.88;7.45;;;17.90;63.50;;;;;;5053095;28;20469;-65
2022/06/05 03:49:08;;;;;;;9.13;5.95;;;17.80;63.50;;;;;;5046026;28;20111;-64
2022/06/05 03:51:34;;;;;;;9.35;6.13;;;17.80;63.50;;;;;;5037736;28;20071;-65
2022/06/05 03:54:00;;;;;;;9.93;6.20;;;17.80;63.50;;;;;;5037254;28;20455;-64
2022/06/05 03:56:28;;;;;;;12.23;7.35;;;17.80;63.50;;;;;;5037482;28;20052;-65
2022/06/05 03:58:55;;;;;;;10.50;6.68;;;17.80;63.50;;;;;;5036903;28;20056;-64
2022/06/05 04:01:23;;;;;;;10.50;6.32;;;17.80;64.20;;;;;;5034414;28;20057;-65
2022/06/05 04:03:49;;;;;;;10.77;6.35;;;17.90;63.60;;;;;;5044477;28;20052;-65
2022/06/05 04:06:17;;;;;;;10.68;7.00;;;17.90;63.60;;;;;;5039676;28;20052;-65
2022/06/05 04:08:43;;;;;;;11.18;7.13;;;17.90;63.50;;;;;;5054422;28;20108;-65
2022/06/05 04:11:11;;;;;;;10.18;6.93;;;17.90;63.50;;;;;;5050211;28;20442;-65
2022/06/05 04:13:37;;;;;;;13.98;7.13;;;17.90;63.50;;;;;;5037489;28;20049;-64
2022/06/05 04:16:14;;;;;;;11.35;7.07;;;17.90;63.50;;;;;;5022867;28;20025;-65
2022/06/05 04:18:39;;;;;;;10.43;6.93;;;17.90;63.50;;;;;;5053258;28;20021;-64
2022/06/05 04:21:10;;;;;;;12.70;7.53;;;17.90;63.50;;;;;;5051823;28;20048;-65
2022/06/05 04:23:36;;;;;;;11.77;7.05;;;17.90;63.60;;;;;;5042438;28;20037;-65
2022/06/05 04:26:06;;;;;;;10.07;6.63;;;17.90;63.50;;;;;;5051532;28;20025;-65
2022/06/05 04:28:31;;;;;;;12.32;7.13;;;17.90;63.50;;;;;;5054628;28;20029;-65
2022/06/05 04:30:57;;;;;;;14.57;6.70;;;17.90;63.50;;;;;;5052648;28;20038;-65
2022/06/05 04:33:22;;;;;;;11.77;6.75;;;17.90;63.60;;;;;;5032380;28;20045;-64
2022/06/05 04:35:48;;;;;;;11.35;6.80;;;17.90;63.50;;;;;;5053081;28;20118;-65
2022/06/05 04:38:15;;;;;;;9.85;7.05;;;17.90;63.50;;;;;;5048124;28;20025;-65
2022/06/05 04:40:41;;;;;;;10.95;7.32;;;18.00;63.50;;;;;;5054225;28;20029;-65
2022/06/05 04:43:08;;;;;;;13.00;7.88;;;18.00;63.50;;;;;;5041930;28;20446;-65
2022/06/05 04:45:34;;;;;;;10.18;6.82;;;18.10;63.50;;;;;;5043615;28;20466;-64
2022/06/05 04:48:00;;;;;;;11.48;6.82;;;18.10;63.40;;;;;;5047306;28;20389;-64
2022/06/05 04:50:26;;;;;;;10.77;6.72;;;18.10;63.40;;;;;;5054557;28;20029;-64
2022/06/05 04:52:51;;;;;;;11.50;7.03;;;18.10;63.30;;;;;;5050927;28;20036;-64
2022/06/05 04:55:17;;;;;;;11.95;7.53;;;18.10;63.30;;;;;;5046127;28;20103;-64
2022/06/05 04:57:44;;;;;;;11.93;7.43;;;18.10;63.20;;;;;;5043041;28;20039;-64
2022/06/05 05:00:11;;;;;;;12.13;6.93;;;18.20;63.20;;;;;;5051008;28;20090;-64
2022/06/05 05:02:37;;;;;;;10.73;6.68;;;18.20;63.10;;;;;;5047853;28;20029;-64
2022/06/05 05:05:04;;;;;;;10.88;6.65;;;18.20;63.00;;;;;;5055616;28;20060;-64
2022/06/05 05:07:30;;;;;;;9.63;6.30;;;18.20;62.90;;;;;;5047358;28;20035;-64
2022/06/05 05:09:55;;;;;;;13.60;7.03;;;18.20;62.90;;;;;;5057239;28;20132;-64
2022/06/05 05:12:21;;;;;;;11.10;6.78;;;18.30;63.00;;;;;;5055006;28;20079;-64
2022/06/05 05:14:47;;;;;;;9.77;6.50;;;18.30;63.00;;;;;;5050792;28;20036;-64
2022/06/05 05:17:12;;;;;;;10.30;6.57;;;18.30;63.00;;;;;;5051762;28;20031;-64
2022/06/05 05:19:38;;;;;;;10.38;6.45;;;18.30;62.90;;;;;;5052344;28;20041;-64
2022/06/05 05:22:04;;;;;;;10.52;6.82;;;18.30;62.90;;;;;;5054010;28;20116;-64
2022/06/05 05:24:30;;;;;;;11.75;6.93;;;18.30;63.00;;;;;;5055670;28;20450;-65
2022/06/05 05:26:55;;;;;;;11.40;7.00;;;18.40;62.90;;;;;;5055807;28;20454;-64
2022/06/05 05:29:21;;;;;;;11.57;6.95;;;18.30;62.80;;;;;;5055916;28;20457;-64
2022/06/05 05:31:47;;;;;;;10.40;6.90;;;18.40;62.80;;;;;;5042957;28;20029;-64
2022/06/05 05:34:14;;;;;;;9.93;6.38;;;18.40;62.90;;;;;;5044526;28;20040;-64
2022/06/05 05:36:40;;;;;;;11.25;6.93;;;18.30;62.80;;;;;;5052357;28;20033;-64
2022/06/05 05:42:06;;;;;;;10.57;6.22;;;18.40;63.00;;;;;;5054389;28;20025;-64
2022/06/05 05:44:47;;;;;;;9.38;6.60;;;18.30;62.90;;;;;;5045217;28;20037;-65
2022/06/05 05:47:17;;;;;;;11.07;7.00;;;18.30;62.90;;;;;;5052503;28;20662;-64
2022/06/05 05:49:43;;;;;;;11.27;7.00;;;18.30;63.00;;;;;;5048913;28;20029;-65
2022/06/05 05:52:10;;;;;;;11.30;7.50;;;18.40;63.00;;;;;;5053244;28;20094;-64
2022/06/05 05:54:36;;;;;;;11.48;7.10;;;18.30;62.90;;;;;;5045093;28;20029;-63
2022/06/05 05:57:03;;;;;;;10.02;6.88;;;18.40;63.50;;;;;;5051950;28;20017;-64
2022/06/05 05:59:29;;;;;;;10.85;7.13;;;18.40;62.80;;;;;;5054057;28;20064;-63
2022/06/05 06:01:55;;;;;;;11.35;7.13;;;18.40;62.90;;;;;;5052052;28;20384;-63
2022/06/05 06:04:20;;;;;;;15.88;7.82;;;18.40;62.90;;;;;;5046651;28;20111;-63
2022/06/05 06:06:49;;;;;;;12.35;7.45;;;18.40;62.90;;;;;;5042719;28;20025;-63
2022/06/05 06:09:15;;;;;;;11.48;7.03;;;18.30;62.90;;;;;;5039993;28;20053;-64
2022/06/05 06:11:41;;;;;;;10.90;6.50;;;18.30;62.90;;;;;;5040807;28;20029;-65
2022/06/05 06:14:07;;;;;;;11.05;7.35;;;18.40;63.00;;;;;;5042996;28;20035;-65
2022/06/05 06:16:33;;;;;;;11.00;7.18;;;18.30;62.90;;;;;;5056176;28;20020;-64
2022/06/05 06:18:59;;;;;;;10.80;6.78;;;18.40;62.90;;;;;;5056245;28;20067;-64
2022/06/05 06:21:25;;;;;;;9.55;6.55;;;18.40;62.90;;;;;;5056081;28;20029;-65
2022/06/05 06:23:50;;;;;;;10.95;6.55;;;18.40;62.90;;;;;;5052392;28;20036;-65
2022/06/05 06:26:16;;;;;;;10.35;7.20;;;18.40;62.90;;;;;;5056479;28;20465;-64
2022/06/05 06:28:42;;;;;;;10.00;6.78;;;18.40;63.00;;;;;;5055094;28;20037;-64
2022/06/05 06:31:11;;;;;;;11.13;7.47;;;18.40;62.90;;;;;;5047469;28;20143;-64
2022/06/05 06:33:38;;;;;;;10.32;6.57;;;18.50;63.00;;;;;;5055073;28;20404;-64
2022/06/05 06:36:06;;;;;;;10.02;6.57;;;18.50;63.00;;;;;;5055748;28;20036;-64
2022/06/05 06:38:33;;;;;;;8.52;6.30;;;18.50;62.90;;;;;;5055119;28;20036;-65
2022/06/05 06:41:06;;;;;;;10.40;6.38;;;18.50;62.80;;;;;;5055713;28;20029;-65
2022/06/05 06:43:33;;;;;;;11.43;6.93;;;18.50;62.80;;;;;;5054662;28;20454;-65
2022/06/05 06:45:59;;;;;;;10.95;6.97;;;18.60;62.90;;;;;;5055944;28;20037;-65
2022/06/05 06:48:25;;;;;;;9.55;6.72;;;18.60;62.90;;;;;;5056360;28;20047;-64
2022/06/05 06:50:55;;;;;;;10.02;7.07;;;18.60;62.80;;;;;;5055726;28;20037;-64
2022/06/05 06:53:21;;;;;;;10.50;6.25;;;18.70;62.70;;;;;;5055947;28;20032;-65
2022/06/05 06:55:47;;;;;;;9.75;6.18;;;18.70;62.70;;;;;;5049084;28;20022;-65
2022/06/05 06:58:13;;;;;;;9.30;5.93;;;18.80;62.70;;;;;;5050834;28;20037;-76
2022/06/05 07:00:39;;;;;;;9.43;6.38;;;18.80;62.60;;;;;;5049514;28;20103;-71
2022/06/05 07:03:04;;;;;;;9.00;6.57;;;18.80;62.50;;;;;;5050713;28;20025;-64
2022/06/05 07:05:31;;;;;;;10.23;6.50;;;18.90;62.50;;;;;;5051671;28;20033;-64
2022/06/05 07:07:57;;;;;;;8.95;6.10;;;18.90;62.40;;;;;;5044410;28;20025;-64
2022/06/05 07:10:22;;;;;;;11.02;7.10;;;19.00;62.30;;;;;;5055208;28;20465;-65
2022/06/05 07:12:48;;;;;;;10.35;6.13;;;19.00;62.20;;;;;;5047413;28;20480;-64
2022/06/05 07:15:16;;;;;;;9.93;6.45;;;19.10;62.20;;;;;;5054431;28;20032;-65
2022/06/05 07:17:41;;;;;;;9.55;6.68;;;19.20;62.00;;;;;;5052657;28;20338;-64
2022/06/05 07:20:08;;;;;;;8.80;6.45;;;19.30;61.80;;;;;;5053454;28;20044;-64
2022/06/05 07:22:34;;;;;;;9.23;5.80;;;19.30;61.60;;;;;;5055305;28;20036;-64
2022/06/05 07:25:00;;;;;;;10.10;6.45;;;19.40;61.50;;;;;;5054966;28;20060;-64
2022/06/05 07:27:27;;;;;;;9.68;6.28;;;19.50;61.20;;;;;;5044778;28;20033;-64
2022/06/05 07:29:53;;;;;;;9.82;6.40;;;19.60;61.10;;;;;;5055301;28;20108;-64
2022/06/05 07:32:20;;;;;;;8.90;5.95;;;19.60;60.90;;;;;;5054519;28;20033;-64
2022/06/05 07:34:46;;;;;;;8.57;5.72;;;19.80;60.80;;;;;;5054891;28;20043;-64
2022/06/05 07:37:13;;;;;;;9.25;5.95;;;19.90;60.70;;;;;;5053998;28;20108;-64
2022/06/05 07:39:40;;;;;;;9.35;5.68;;;19.90;60.50;;;;;;5054833;28;20051;-64
2022/06/05 07:42:06;;;;;;;7.93;5.47;;;20.00;60.30;;;;;;5046727;28;20034;-64
2022/06/05 07:44:32;;;;;;;9.25;5.60;;;20.00;60.20;;;;;;5051170;28;20070;-65
2022/06/05 07:46:58;;;;;;;10.35;5.63;;;20.10;60.10;;;;;;5054400;28;20013;-65
2022/06/05 07:49:23;;;;;;;8.27;5.40;;;20.20;60.00;;;;;;5054875;28;20039;-65
2022/06/05 07:54:34;;;;;;;8.80;5.40;;;20.30;59.80;;;;;;5053477;28;20351;-64
2022/06/05 07:57:06;;;;;;;10.38;6.13;;;20.40;59.80;;;;;;5053452;28;20134;-64
2022/06/05 07:59:34;;;;;;;9.40;5.68;;;20.40;59.60;;;;;;5051133;28;20017;-64
2022/06/05 08:02:05;;;;;;;8.88;5.50;;;20.40;59.50;;;;;;5054317;28;20104;-65
2022/06/05 08:04:32;;;;;;;9.13;5.65;;;20.50;59.40;;;;;;5056544;28;20013;-65
2022/06/05 08:06:59;;;;;;;9.25;5.13;;;20.60;59.30;;;;;;5044499;28;20349;-65
2022/06/05 08:09:26;;;;;;;9.27;5.53;;;20.70;59.10;;;;;;5057408;28;20397;-64
2022/06/05 08:11:51;;;;;;;8.25;5.30;;;20.80;59.50;;;;;;5051668;28;20029;-64
2022/06/05 08:14:17;;;;;;;10.27;5.40;;;20.90;58.60;;;;;;5051260;28;20087;-64
2022/06/05 08:16:44;;;;;;;8.68;5.05;;;21.10;58.40;;;;;;5058679;28;20013;-64
2022/06/05 08:19:18;;;;;;;9.07;5.50;;;21.30;58.20;;;;;;5057339;28;20040;-64
2022/06/05 08:21:43;;;;;;;9.35;5.00;;;21.40;57.90;;;;;;5057794;28;20036;-64
2022/06/05 08:24:09;;;;;;;8.65;5.57;;;21.50;57.90;;;;;;5058073;28;20033;-64
2022/06/05 08:26:35;;;;;;;10.10;5.30;;;21.50;58.40;;;;;;5055327;28;20698;-64
2022/06/05 08:29:01;;;;;;;9.23;5.43;;;21.60;57.70;;;;;;5043364;28;20366;-64
2022/06/05 08:31:29;;;;;;;8.10;5.53;;;21.70;57.60;;;;;;5056367;28;20133;-64
2022/06/05 08:33:57;;;;;;;9.95;5.55;;;21.70;57.50;;;;;;5057896;28;20112;-64
2022/06/05 08:36:22;;;;;;;10.40;5.72;;;21.80;57.50;;;;;;5058021;28;20113;-65
2022/06/05 08:42:12;;;;;;;8.63;5.30;;;21.90;57.20;;;;;;5056477;28;20033;-64
2022/06/05 08:44:51;;;;;;;7.68;5.35;;;22.10;57.00;;;;;;5057166;28;20045;-65
2022/06/05 08:48:15;;;;;;;8.00;4.90;;;22.20;56.70;;;;;;5057936;28;20400;-64
2022/06/05 08:50:58;;;;;;;8.43;5.15;;;22.40;56.40;;;;;;5036391;28;20112;-64
2022/06/05 08:53:37;;;;;;;9.73;5.25;;;22.70;56.10;;;;;;5036065;28;20121;-64
2022/06/05 08:56:05;;;;;;;7.80;4.93;;;22.90;55.80;;;;;;5036627;28;20056;-64
2022/06/05 08:58:55;;;;;;;8.40;5.32;;;23.10;55.60;;;;;;5017074;28;20048;-64
2022/06/05 09:01:37;;;;;;;7.25;5.13;;;23.30;55.10;;;;;;5036206;28;20104;-65
2022/06/05 09:04:20;;;;;;;8.52;5.13;;;23.40;54.90;;;;;;5035972;28;20143;-64
2022/06/05 09:06:52;;;;;;;8.43;5.22;;;23.50;54.80;;;;;;5035966;28;20065;-65
2022/06/05 09:09:26;;;;;;;;;;;23.60;54.80;;;;;;5036120;28;20045;-64
2022/06/05 09:12:00;;;;;;;7.60;4.93;;;23.70;54.70;;;;;;5033375;28;20393;-64
2022/06/05 09:14:45;;;;;;;7.28;5.28;;;23.90;54.60;;;;;;5035471;28;20099;-65
2022/06/05 09:17:15;;;;;;;9.63;5.57;;;24.00;55.00;;;;;;5036006;28;20025;-65
2022/06/05 09:19:42;;;;;;;8.48;5.05;;;24.20;54.10;;;;;;5036027;28;20025;-64
2022/06/05 09:22:16;;;;;;;8.77;5.53;;;24.30;54.00;;;;;;5040963;28;20041;-64
2022/06/05 09:24:55;;;;;;;10.13;5.45;;;24.40;53.80;;;;;;5057279;28;20041;-65
2022/06/05 09:27:45;;;;;;;8.38;5.28;;;24.50;53.80;;;;;;5054086;28;20422;-65
2022/06/05 09:30:17;;;;;;;7.95;4.90;;;24.50;53.70;;;;;;5056388;28;20499;-65
2022/06/05 09:32:56;;;;;;;8.40;4.50;;;24.60;53.80;;;;;;5049002;28;20029;-64
2022/06/05 09:35:33;;;;;;;7.65;4.93;;;24.60;53.90;;;;;;5052037;28;20350;-64
2022/06/05 09:38:25;;;;;;;7.00;4.65;;;24.50;53.90;;;;;;5056078;28;20140;-64
2022/06/05 09:41:13;;;;;;;7.50;4.82;;;24.50;54.00;;;;;;5056719;28;20447;-65
2022/06/05 09:44:06;;;;;;;7.63;4.65;;;24.40;54.00;;;;;;5056761;28;20108;-65
2022/06/05 09:46:47;;;;;;;10.63;4.97;;;24.30;54.20;;;;;;5056948;28;20454;-65
2022/06/05 09:49:18;;;;;;;8.75;5.35;;;24.20;54.30;;;;;;5041049;28;20025;-65
2022/06/05 09:51:45;;;;;;;9.20;5.43;;;24.10;54.50;;;;;;5054101;28;20118;-65
2022/06/05 09:54:14;;;;;;;7.43;5.40;;;24.00;54.60;;;;;;5056544;28;20028;-65
2022/06/05 09:59:55;;;;;;;7.90;5.45;;;23.80;55.00;;;;;;5056619;28;20067;-64
2022/06/05 10:02:22;;;;;;;9.10;5.05;;;23.70;55.20;;;;;;5057059;28;20031;-65
2022/06/05 10:04:49;;;;;;;8.68;4.97;;;23.70;55.40;;;;;;5056022;28;20072;-66
2022/06/05 10:07:32;;;;;;;8.35;5.40;;;23.60;55.60;;;;;;5038964;28;20330;-65
2022/06/05 10:10:04;;;;;;;12.95;5.60;;;23.50;55.70;;;;;;5043714;28;20095;-65
2022/06/05 10:12:53;;;;;;;9.00;5.43;;;23.50;55.80;;;;;;5053487;28;20029;-65
2022/06/05 10:15:29;;;;;;;8.32;5.68;;;23.50;55.90;;;;;;5043265;28;20044;-65
2022/06/05 10:18:01;;;;;;;8.75;5.38;;;23.40;56.00;;;;;;5056109;28;20042;-65
2022/06/05 10:20:56;;;;;;;9.18;4.80;;;23.30;56.10;;;;;;5055818;28;20476;-64
2022/06/05 10:23:46;;;;;;;7.78;5.53;;;23.30;56.20;;;;;;5056169;28;20035;-65
2022/06/05 10:26:17;;;;;;;7.68;5.47;;;23.30;56.40;;;;;;5054940;28;20029;-65
2022/06/05 10:28:44;;;;;;;7.13;4.88;;;23.20;56.40;;;;;;5043383;28;20067;-65
2022/06/05 10:31:24;;;;;;;9.30;5.53;;;23.20;56.50;;;;;;5054368;28;20410;-65
2022/06/05 10:34:17;;;;;;;7.88;5.47;;;23.20;56.70;;;;;;5055721;28;20033;-64
2022/06/05 10:37:16;;;;;;;7.07;5.25;;;23.20;56.70;;;;;;5055649;28;20055;-65
2022/06/05 10:40:08;;;;;;;7.70;5.40;;;23.10;56.70;;;;;;5055471;28;20029;-65
2022/06/05 10:42:44;;;;;;;7.70;5.13;;;23.10;56.80;;;;;;5052958;28;20037;-65
2022/06/05 10:45:32;;;;;;;7.85;5.30;;;23.10;56.90;;;;;;5052289;28;20454;-64
2022/06/05 10:48:03;;;;;;;9.10;5.45;;;23.00;57.00;;;;;;5038420;28;20132;-66
2022/06/05 10:50:50;;;;;;;9.13;5.93;;;23.00;57.10;;;;;;5055865;28;20112;-65
2022/06/05 10:53:40;;;;;;;9.15;5.75;;;23.00;57.20;;;;;;5054637;28;20060;-64
2022/06/05 10:56:12;;;;;;;8.02;6.07;;;23.00;57.30;;;;;;5055816;28;20040;-65
2022/06/05 10:58:57;;;;;;;8.07;5.95;;;23.00;57.40;;;;;;5055290;28;20082;-64
2022/06/05 11:01:53;;;;;;;8.73;5.72;;;22.90;57.40;;;;;;5046177;28;20362;-65
2022/06/05 11:04:35;;;;;;;8.05;5.85;;;22.90;57.40;;;;;;5052028;28;20059;-65
2022/06/05 11:07:18;;;;;;;;;;;22.80;57.40;;;;;;5041668;28;20025;-65
2022/06/05 11:09:49;;;;;;;7.85;4.85;;;22.80;57.40;;;;;;5053824;28;19913;-64
2022/06/05 11:15:22;;;;;;;9.60;6.13;;;22.80;57.60;;;;;;5041065;28;20079;-65
2022/06/05 11:18:08;;;;;;;9.27;5.47;;;22.80;57.50;;;;;;5042038;28;20407;-65
2022/06/05 11:20:35;;;;;;;7.72;5.35;;;22.80;57.50;;;;;;5055108;28;20033;-65
2022/06/05 11:23:23;;;;;;;8.48;6.22;;;22.80;57.50;;;;;;5054839;28;20020;-64
2022/06/05 11:25:59;;;;;;;8.18;5.65;;;22.80;57.60;;;;;;5054768;28;20033;-65
2022/06/05 11:29:16;;;;;;;7.95;5.78;;;22.80;57.70;;;;;;5042614;28;20459;-66
2022/06/05 11:31:56;;;;;;;8.35;5.88;;;22.70;57.80;;;;;;5002762;28;20510;-65
2022/06/05 11:34:46;;;;;;;9.00;5.97;;;22.80;57.80;;;;;;4992401;28;20491;-66
2022/06/05 11:37:50;;;;;;;7.65;5.45;;;22.70;57.80;;;;;;5006234;28;20026;-65
2022/06/05 11:40:57;;;;;;;7.93;5.75;;;22.70;57.80;;;;;;4996043;28;20044;-65
2022/06/05 11:43:35;;;;;;;7.80;5.32;;;22.70;57.80;;;;;;5010600;28;20091;-66
2022/06/05 11:46:03;;;;;;;7.65;5.50;;;22.70;57.80;;;;;;5011739;28;20030;-65
2022/06/05 11:48:50;;;;;;;8.48;6.18;;;22.60;57.80;;;;;;5013339;28;20053;-64
2022/06/05 11:51:25;;;;;;;9.32;5.90;;;22.60;57.90;;;;;;5012740;28;20106;-64
2022/06/05 11:54:24;;;;;;;10.35;6.68;;;22.60;58.10;;;;;;5013161;28;20046;-64
2022/06/05 11:56:59;;;;;;;8.65;6.32;;;22.60;58.10;;;;;;5011488;28;20041;-64
2022/06/05 11:59:58;;;;;;;8.48;6.20;;;22.50;58.20;;;;;;5004458;28;20034;-64
2022/06/05 12:02:51;;;;;;;10.52;6.35;;;22.50;58.30;;;;;;5000343;28;20455;-64
2022/06/05 12:05:26;;;;;;;9.98;6.53;;;22.50;58.60;;;;;;5012381;28;20034;-64
2022/06/05 12:08:01;;;;;;;7.90;5.85;;;22.40;58.80;;;;;;5034540;28;20461;-65
2022/06/05 12:10:29;;;;;;;8.63;6.50;;;22.40;59.40;;;;;;5048973;28;20053;-64
2022/06/05 12:13:01;;;;;;;8.88;6.70;;;22.40;59.80;;;;;;5054515;28;20048;-64
2022/06/05 12:15:47;;;;;;;;;;;22.30;60.30;;;;;;5054846;28;20037;-64
2022/06/05 12:18:22;;;;;;;10.57;7.53;;;22.30;60.20;;;;;;5020094;28;19909;-64
2022/06/05 12:21:12;;;;;;;15.60;11.07;;;22.20;60.80;;;;;;5041800;28;20426;-64
2022/06/05 12:24:20;;;;;;;23.05;17.00;;;22.30;61.30;;;;;;5041976;28;20048;-64
2022/06/05 12:27:04;;;;;;;19.90;15.13;;;22.30;61.60;;;;;;5047773;28;20378;-64
2022/06/05 12:29:32;;;;;;;17.05;13.55;;;22.30;61.90;;;;;;5054855;28;20051;-64
2022/06/05 12:32:09;;;;;;;17.50;13.52;;;22.30;62.00;;;;;;5052087;28;20036;-64
2022/06/05 12:34:51;;;;;;;15.75;12.65;;;22.30;62.40;;;;;;5049847;28;20041;-64
2022/06/05 12:37:23;;;;;;;19.48;14.27;;;22.30;62.70;;;;;;5043069;28;20025;-64
2022/06/05 12:39:53;;;;;;;20.73;14.45;;;22.30;63.20;;;;;;5044691;28;20115;-64
2022/06/05 12:42:25;;;;;;;18.92;14.68;;;22.20;63.60;;;;;;5039880;28;20450;-64
2022/06/05 12:45:00;;;;;;;15.82;12.95;;;22.10;64.70;;;;;;5049802;28;20038;-64
2022/06/05 12:47:51;;;;;;;13.23;11.18;;;22.10;65.00;;;;;;5039495;28;20033;-64
2022/06/05 12:50:23;;;;;;;11.60;9.90;;;22.10;65.60;;;;;;5050471;28;20021;-64
2022/06/05 12:53:05;;;;;;;10.05;8.65;;;22.00;65.90;;;;;;5050880;28;20494;-64
2022/06/05 12:56:12;;;;;;;12.43;8.85;;;21.90;66.40;;;;;;5043239;28;20057;-64
2022/06/05 12:59:01;;;;;;;10.13;8.23;;;21.90;66.80;;;;;;5047416;28;20357;-65
2022/06/05 13:01:37;;;;;;;10.35;8.70;;;21.90;67.10;;;;;;5034623;28;20021;-64
2022/06/05 13:04:06;;;;;;;10.07;8.88;;;21.90;67.30;;;;;;5046680;28;21645;-65
2022/06/05 13:06:41;;;;;;;11.38;8.82;;;21.90;67.70;;;;;;5053490;28;20036;-65
2022/06/05 13:09:22;;;;;;;12.52;9.23;;;21.90;68.00;;;;;;5040752;28;20043;-63
2022/06/05 13:12:14;;;;;;;12.80;10.18;;;21.90;68.40;;;;;;5028226;28;20180;-64
2022/06/05 13:15:00;;;;;;;11.13;9.45;;;21.90;68.60;;;;;;5043747;28;20454;-64
2022/06/05 13:18:06;;;;;;;11.60;10.05;;;21.90;68.70;;;;;;5042680;28;20442;-64
2022/06/05 13:20:50;;;;;;;11.27;9.90;;;21.90;68.70;;;;;;5040635;28;20136;-64
2022/06/05 13:23:35;;;;;;;11.18;9.98;;;21.90;68.80;;;;;;5041570;28;20028;-64
2022/06/05 13:26:37;;;;;;;10.70;9.60;;;21.90;69.10;;;;;;5036515;28;20029;-64
2022/06/05 13:29:24;;;;;;;11.30;10.10;;;21.90;69.10;;;;;;5034503;28;20036;-64
2022/06/05 13:32:14;;;;;;;11.65;9.45;;;21.90;69.40;;;;;;5033945;28;20065;-64
2022/06/05 13:34:55;;;;;;;12.35;10.27;;;21.90;69.50;;;;;;5046389;28;20034;-65